San Diego, CA

2:29 AM PDT on 四月 24, 2017 (GMT -0700)
Union Square Condominiums | | Change Station
発令中の注意報: Beach Hazard Statement

高度 79 ft 32.72 °N, 117.15 °W | Updated 5 minutes ago

Mostly Cloudy
だいたい曇
62.1 °F
体感気温 62.1 °F
0.0
風 変数 風 から 南南東

今日
高い -- | 低 -- °F
--% 降水確率
昨日
高い -- | 低 -- °F
Precip. -- インチ
気圧 29.89 インチ
視程 10.0 マイル
だいたい曇 2000 ft
だいたい曇 25000 ft
露点温度 57 °F
湿度 83%
降水 0.00 インチ
積雪深 利用不可。
6:08 AM 7:25 PM
二十六夜, 6% visible
METAR KSAN 240851Z 17007KT 10SM BKN020 BKN250 17/11 A2989 RMK AO2 SLP122 T01720111 58005
気圧 29.89 インチ
視程 10.0 マイル
だいたい曇 2000 ft
だいたい曇 25000 ft
露点温度 57 °F
湿度 83%
降水 0.00 インチ
積雪深 利用不可。
6:08 AM 7:25 PM
二十六夜, 6% visible
METAR KSAN 240851Z 17007KT 10SM BKN020 BKN250 17/11 A2989 RMK AO2 SLP122 T01720111 58005

Get Your Daily Forecast Email!

Thanks for signing up!

Be on the lookout for a verification email in your inbox.

You'll start receiving severe weather alerts in your inbox..

×

10-Day Weather Forecast

Almanac

天文

Apr. 24, 2017 入り
実時間
常用薄明
航海薄明
天文薄明
可視光の長さ
可照時間
Tomorrow will be .
, % of the Moon is Illuminated

今日の極値

State Highs State Lows

Community

WunderBlog® & News

Nearby

空気品質

  空気品質 大気質指数 汚染物質
Not available.

積雪深

Station Depth 高度

地震活動

Distance Mag. Time & Date
Minimum magnitude displayed is 2.5.

沿岸の水温

地名 気温

Stations

最寄りの気象観測所

観測所位置 温度 体感気温(寒さ) 露点温度 湿度 Precip. 高度 更新日時 タイプする
                   

Watches & Warnings

Beach Hazard Statement
Issued: 2:13 AM PDT Apr. 24, 2017 – National Weather Service

... Beach hazards statement remains in effect through this
evening...

* waves and surf... surf 3 to 6 feet with occasional sets to 7 feet
through this evening.

* Impacts... dangerous conditions in the surf zone due to
elevated surf and strong rip currents.

Precautionary/preparedness actions...

Swim near a lifeguard. If caught in a rip current... relax and
float. Do not swim against the current. If able... swim in a
direction following the shoreline. If unable to escape... face the
shore and call or wave for help.